createdAt,value
2023-04-02T00:00:45.963Z,4.32
2023-04-02T00:01:45.978Z,4.33
2023-04-02T00:02:45.992Z,4.32
2023-04-02T00:03:46.035Z,4.32
2023-04-02T00:04:45.962Z,4.30
2023-04-02T00:05:45.887Z,4.30
2023-04-02T00:06:45.914Z,4.29
2023-04-02T00:07:45.894Z,4.26
2023-04-02T00:08:45.873Z,4.24
2023-04-02T00:09:45.871Z,4.22
2023-04-02T00:10:45.840Z,4.16
2023-04-02T00:11:45.853Z,4.15
2023-04-02T00:12:45.837Z,4.16
2023-04-02T00:13:45.816Z,4.15
2023-04-02T00:14:45.861Z,4.15
2023-04-02T00:15:45.804Z,4.12
2023-04-02T00:16:45.805Z,4.12
2023-04-02T00:17:45.799Z,4.11
2023-04-02T00:18:45.785Z,4.11
2023-04-02T00:19:45.806Z,4.14
2023-04-02T00:20:45.747Z,4.12
2023-04-02T00:21:45.735Z,4.09
2023-04-02T00:22:45.745Z,4.08
2023-04-02T00:23:45.738Z,4.08
2023-04-02T00:24:46.073Z,4.08
2023-04-02T00:25:45.843Z,4.05
2023-04-02T00:26:45.720Z,4.02
2023-04-02T00:27:45.676Z,4.02
2023-04-02T00:28:45.692Z,3.98
2023-04-02T00:29:45.651Z,4.00
2023-04-02T00:30:45.662Z,3.98
2023-04-02T00:31:45.683Z,3.97
2023-04-02T00:32:45.694Z,3.96
2023-04-02T00:33:45.612Z,3.96
2023-04-02T00:34:45.611Z,3.97
2023-04-02T00:35:45.613Z,3.96
2023-04-02T00:36:45.568Z,3.96
2023-04-02T00:37:45.563Z,3.94
2023-04-02T00:38:47.415Z,3.91
2023-04-02T00:39:45.542Z,3.91
2023-04-02T00:40:45.528Z,3.94
2023-04-02T00:41:45.519Z,3.91
2023-04-02T00:42:45.504Z,3.90
2023-04-02T00:43:45.511Z,3.88
2023-04-02T00:44:45.490Z,3.90
2023-04-02T00:45:45.511Z,3.90
2023-04-02T00:46:45.486Z,3.91
2023-04-02T00:47:45.508Z,3.88
2023-04-02T00:48:45.461Z,3.86
2023-04-02T00:49:45.432Z,3.86
2023-04-02T00:50:45.446Z,3.83
2023-04-02T00:51:45.405Z,3.80
2023-04-02T00:52:45.416Z,3.79
2023-04-02T00:53:45.387Z,3.83
2023-04-02T00:54:45.393Z,3.83
2023-04-02T00:55:45.451Z,3.83
2023-04-02T00:56:45.358Z,3.80
2023-04-02T00:57:45.358Z,3.80
2023-04-02T00:58:45.361Z,3.78
2023-04-02T00:59:45.370Z,3.78
2023-04-02T01:00:45.333Z,3.78
2023-04-02T01:01:45.430Z,3.76
2023-04-02T01:02:45.371Z,3.79
2023-04-02T01:03:45.406Z,3.75
2023-04-02T01:04:45.271Z,3.75
2023-04-02T01:05:45.260Z,3.76
2023-04-02T01:06:45.277Z,3.75
2023-04-02T01:07:45.233Z,3.73
2023-04-02T01:08:45.257Z,3.70
2023-04-02T01:09:45.213Z,3.68
2023-04-02T01:10:45.251Z,3.68
2023-04-02T01:11:45.196Z,3.66
2023-04-02T01:12:45.204Z,3.66
2023-04-02T01:13:45.192Z,3.65
2023-04-02T01:14:45.171Z,3.65
2023-04-02T01:15:45.212Z,3.65
2023-04-02T01:16:45.143Z,3.61
2023-04-02T01:17:45.239Z,3.62
2023-04-02T01:18:45.138Z,3.61
2023-04-02T01:19:45.103Z,3.61
2023-04-02T01:20:45.118Z,3.60
2023-04-02T01:21:45.091Z,3.61
2023-04-02T01:22:45.070Z,3.60
2023-04-02T01:23:45.077Z,3.60
2023-04-02T01:24:45.053Z,3.60
2023-04-02T01:25:45.064Z,3.58
2023-04-02T01:26:45.260Z,3.60
2023-04-02T01:27:45.031Z,3.60
2023-04-02T01:28:45.030Z,3.60
2023-04-02T01:29:45.002Z,3.60
2023-04-02T01:30:44.994Z,3.55
2023-04-02T01:31:45.246Z,3.54
2023-04-02T01:32:45.046Z,3.52
2023-04-02T01:33:44.985Z,3.51
2023-04-02T01:34:44.953Z,3.50
2023-04-02T01:35:44.959Z,3.52
2023-04-02T01:36:44.967Z,3.51
2023-04-02T01:37:44.976Z,3.50
2023-04-02T01:38:44.905Z,3.50
2023-04-02T01:39:44.890Z,3.50
2023-04-02T01:40:44.900Z,3.48
2023-04-02T01:41:44.893Z,3.43
2023-04-02T01:42:44.897Z,3.43
2023-04-02T01:43:44.855Z,3.45
2023-04-02T01:44:44.867Z,3.47
2023-04-02T01:45:44.839Z,3.45
2023-04-02T01:46:44.922Z,3.45
2023-04-02T01:47:44.872Z,3.43
2023-04-02T01:48:44.816Z,3.42
2023-04-02T01:49:44.796Z,3.43
2023-04-02T01:50:44.781Z,3.43
2023-04-02T01:51:44.769Z,3.42
2023-04-02T01:52:44.748Z,3.39
2023-04-02T01:53:44.762Z,3.39
2023-04-02T01:54:44.731Z,3.39
2023-04-02T01:55:44.733Z,3.40
2023-04-02T01:56:44.702Z,3.40
2023-04-02T01:57:44.757Z,3.42
2023-04-02T01:58:44.677Z,3.40
2023-04-02T01:59:44.682Z,3.40
2023-04-02T02:00:44.714Z,3.39
2023-04-02T02:01:44.694Z,3.39
2023-04-02T02:02:44.696Z,3.40
2023-04-02T02:03:44.627Z,3.39
2023-04-02T02:04:44.629Z,3.35
2023-04-02T02:05:44.623Z,3.35
2023-04-02T02:06:44.598Z,3.33
2023-04-02T02:07:44.593Z,3.35
2023-04-02T02:08:44.625Z,3.33
2023-04-02T02:09:44.577Z,3.32
2023-04-02T02:10:44.560Z,3.35
2023-04-02T02:11:44.567Z,3.31
2023-04-02T02:12:44.556Z,3.31
2023-04-02T02:13:44.534Z,3.28
2023-04-02T02:14:44.533Z,3.31
2023-04-02T02:15:44.547Z,3.29
2023-04-02T02:16:44.592Z,3.28
2023-04-02T02:17:44.506Z,3.29
2023-04-02T02:18:44.468Z,3.28
2023-04-02T02:19:44.464Z,3.28
2023-04-02T02:20:44.476Z,3.26
2023-04-02T02:21:44.469Z,3.26
2023-04-02T02:22:44.434Z,3.23
2023-04-02T02:23:44.438Z,3.24
2023-04-02T02:24:44.426Z,3.23
2023-04-02T02:25:44.428Z,3.21
2023-04-02T02:26:44.383Z,3.23
2023-04-02T02:27:44.394Z,3.23
2023-04-02T02:28:44.722Z,3.21
2023-04-02T02:29:44.360Z,3.21
2023-04-02T02:30:44.343Z,3.21
2023-04-02T02:31:44.385Z,3.21
2023-04-02T02:32:44.401Z,3.20
2023-04-02T02:33:44.361Z,3.20
2023-04-02T02:34:44.321Z,3.18
2023-04-02T02:35:44.375Z,3.18
2023-04-02T02:36:52.840Z,3.18
2023-04-02T02:37:52.798Z,3.18
2023-04-02T02:38:44.277Z,3.18
2023-04-02T02:39:44.278Z,3.20
2023-04-02T02:40:44.235Z,3.15
2023-04-02T02:41:44.253Z,3.20
2023-04-02T02:42:44.213Z,3.20
2023-04-02T02:43:44.224Z,3.20
2023-04-02T02:44:44.201Z,3.20
2023-04-02T02:45:44.270Z,3.18
2023-04-02T02:46:44.175Z,3.20
2023-04-02T02:47:44.210Z,3.17
2023-04-02T02:48:44.183Z,3.17
2023-04-02T02:49:44.154Z,3.14
2023-04-02T02:50:44.156Z,3.14
2023-04-02T02:51:44.129Z,3.14
2023-04-02T02:52:44.094Z,3.13
2023-04-02T02:53:44.113Z,3.13
2023-04-02T02:54:44.112Z,3.13
2023-04-02T02:55:44.086Z,3.10
2023-04-02T02:56:44.073Z,3.13
2023-04-02T02:57:44.091Z,3.10
2023-04-02T02:58:44.053Z,3.06
2023-04-02T02:59:44.094Z,3.06
2023-04-02T03:00:44.040Z,3.06
2023-04-02T03:01:44.093Z,3.05
2023-04-02T03:02:44.105Z,3.02
2023-04-02T03:03:44.277Z,3.00
2023-04-02T03:04:43.970Z,3.02
2023-04-02T03:05:43.998Z,3.00
2023-04-02T03:06:43.961Z,3.02
2023-04-02T03:07:43.955Z,3.02
2023-04-02T03:08:43.958Z,3.00
2023-04-02T03:09:43.966Z,2.97
2023-04-02T03:10:43.924Z,2.97
2023-04-02T03:11:43.906Z,2.97
2023-04-02T03:12:43.891Z,2.97
2023-04-02T03:13:43.921Z,2.96
2023-04-02T03:14:43.860Z,2.95
2023-04-02T03:15:43.938Z,2.95
2023-04-02T03:16:43.846Z,2.96
2023-04-02T03:17:43.906Z,2.95
2023-04-02T03:18:43.845Z,2.93
2023-04-02T03:19:43.842Z,2.93
2023-04-02T03:20:43.820Z,2.95
2023-04-02T03:21:43.817Z,2.95
2023-04-02T03:22:43.811Z,2.92
2023-04-02T03:23:43.814Z,2.90
2023-04-02T03:24:43.773Z,2.92
2023-04-02T03:25:43.805Z,2.92
2023-04-02T03:26:43.768Z,2.90
2023-04-02T03:27:43.773Z,2.90
2023-04-02T03:28:43.737Z,2.89
2023-04-02T03:29:43.745Z,2.89
2023-04-02T03:30:43.818Z,2.87
2023-04-02T03:31:43.773Z,2.85
2023-04-02T03:32:43.760Z,2.85
2023-04-02T03:33:43.703Z,2.87
2023-04-02T03:34:43.678Z,2.84
2023-04-02T03:35:43.699Z,2.84
2023-04-02T03:36:43.680Z,2.82
2023-04-02T03:37:43.662Z,2.79
2023-04-02T03:38:43.667Z,2.79
2023-04-02T03:39:43.630Z,2.75
2023-04-02T03:40:43.633Z,2.75
2023-04-02T03:41:43.624Z,2.75
2023-04-02T03:42:43.607Z,2.74
2023-04-02T03:43:43.592Z,2.72
2023-04-02T03:44:43.580Z,2.72
2023-04-02T03:45:43.557Z,2.72
2023-04-02T03:46:52.171Z,2.71
2023-04-02T03:47:43.574Z,2.71
2023-04-02T03:48:43.534Z,2.69
2023-04-02T03:49:43.534Z,2.66
2023-04-02T03:50:52.021Z,2.64
2023-04-02T03:51:53.063Z,2.64
2023-04-02T03:52:43.488Z,2.63
2023-04-02T03:53:52.035Z,2.61
2023-04-02T03:54:54.254Z,2.64
2023-04-02T03:55:44.466Z,2.60
2023-04-02T03:56:51.986Z,2.59
2023-04-02T03:57:43.443Z,2.60
2023-04-02T03:58:43.425Z,2.60
2023-04-02T03:59:43.410Z,2.60
2023-04-02T04:00:43.414Z,2.59
2023-04-02T04:01:53.532Z,2.56
2023-04-02T04:02:43.386Z,2.56
2023-04-02T04:03:52.045Z,2.56
2023-04-02T04:04:43.343Z,2.56
2023-04-02T04:05:51.907Z,2.56
2023-04-02T04:06:43.323Z,2.56
2023-04-02T04:07:43.347Z,2.56
2023-04-02T04:08:43.318Z,2.56
2023-04-02T04:09:43.329Z,2.54
2023-04-02T04:10:43.320Z,2.57
2023-04-02T04:11:43.331Z,2.54
2023-04-02T04:12:43.287Z,2.56
2023-04-02T04:13:43.281Z,2.56
2023-04-02T04:14:45.174Z,2.57
2023-04-02T04:15:43.260Z,2.59
2023-04-02T04:16:43.276Z,2.56
2023-04-02T04:17:43.332Z,2.56
2023-04-02T04:18:43.221Z,2.54
2023-04-02T04:19:43.219Z,2.56
2023-04-02T04:20:43.189Z,2.56
2023-04-02T04:21:43.200Z,2.54
2023-04-02T04:22:43.195Z,2.54
2023-04-02T04:23:43.197Z,2.57
2023-04-02T04:24:43.143Z,2.56
2023-04-02T04:25:43.157Z,2.54
2023-04-02T04:26:43.147Z,2.57
2023-04-02T04:27:43.153Z,2.56
2023-04-02T04:28:43.120Z,2.56
2023-04-02T04:29:43.117Z,2.57
2023-04-02T04:30:43.100Z,2.57
2023-04-02T04:31:43.146Z,2.56
2023-04-02T04:32:43.238Z,2.57
2023-04-02T04:33:43.075Z,2.56
2023-04-02T04:34:43.059Z,2.57
2023-04-02T04:35:43.081Z,2.57
2023-04-02T04:36:43.027Z,2.60
2023-04-02T04:37:43.463Z,2.56
2023-04-02T04:38:43.028Z,2.59
2023-04-02T04:39:43.022Z,2.56
2023-04-02T04:40:42.990Z,2.56
2023-04-02T04:41:42.993Z,2.59
2023-04-02T04:42:43.002Z,2.57
2023-04-02T04:43:42.968Z,2.57
2023-04-02T04:44:42.991Z,2.59
2023-04-02T04:45:42.975Z,2.60
2023-04-02T04:46:42.927Z,2.59
2023-04-02T04:47:42.946Z,2.59
2023-04-02T04:48:42.907Z,2.60
2023-04-02T04:49:42.946Z,2.60
2023-04-02T04:50:42.887Z,2.61
2023-04-02T04:51:42.882Z,2.60
2023-04-02T04:52:42.866Z,2.60
2023-04-02T04:53:42.868Z,2.59
2023-04-02T04:54:42.848Z,2.59
2023-04-02T04:55:42.863Z,2.63
2023-04-02T04:56:42.805Z,2.61
2023-04-02T04:57:42.821Z,2.61
2023-04-02T04:58:42.798Z,2.63
2023-04-02T04:59:42.826Z,2.63
2023-04-02T05:00:42.780Z,2.63
2023-04-02T05:01:42.873Z,2.64
2023-04-02T05:02:42.800Z,2.64
2023-04-02T05:03:42.829Z,2.64
2023-04-02T05:04:42.767Z,2.64
2023-04-02T05:05:42.735Z,2.66
2023-04-02T05:06:42.706Z,2.66
2023-04-02T05:07:42.752Z,2.66
2023-04-02T05:08:42.690Z,2.67
2023-04-02T05:09:42.703Z,2.63
2023-04-02T05:10:42.676Z,2.66
2023-04-02T05:11:42.722Z,2.67
2023-04-02T05:12:42.670Z,2.66
2023-04-02T05:13:42.640Z,2.66
2023-04-02T05:14:42.621Z,2.64
2023-04-02T05:15:42.649Z,2.63
2023-04-02T05:16:42.802Z,2.66
2023-04-02T05:17:42.668Z,2.64
2023-04-02T05:18:42.587Z,2.66
2023-04-02T05:19:42.621Z,2.67
2023-04-02T05:20:42.577Z,2.69
2023-04-02T05:21:42.570Z,2.69
2023-04-02T05:22:42.544Z,2.67
2023-04-02T05:23:42.562Z,2.67
2023-04-02T05:24:42.533Z,2.69
2023-04-02T05:25:42.558Z,2.67
2023-04-02T05:26:42.518Z,2.71
2023-04-02T05:27:42.503Z,2.71
2023-04-02T05:28:42.506Z,2.71
2023-04-02T05:29:42.486Z,2.71
2023-04-02T05:30:42.453Z,2.74
2023-04-02T05:31:42.511Z,2.75
2023-04-02T05:32:42.528Z,2.74
2023-04-02T05:33:42.432Z,2.75
2023-04-02T05:34:42.618Z,2.75
2023-04-02T05:35:42.471Z,2.77
2023-04-02T05:36:42.437Z,2.75
2023-04-02T05:37:42.424Z,2.78
2023-04-02T05:38:42.386Z,2.78
2023-04-02T05:39:42.379Z,2.79
2023-04-02T05:40:42.405Z,2.81
2023-04-02T05:41:42.360Z,2.78
2023-04-02T05:42:42.381Z,2.77
2023-04-02T05:43:42.368Z,2.81
2023-04-02T05:44:42.321Z,2.79
2023-04-02T05:45:42.350Z,2.78
2023-04-02T05:46:42.327Z,2.79
2023-04-02T05:47:42.353Z,2.81
2023-04-02T05:48:42.297Z,2.82
2023-04-02T05:49:42.305Z,2.84
2023-04-02T05:50:42.294Z,2.82
2023-04-02T05:51:42.252Z,2.85
2023-04-02T05:52:42.251Z,2.85
2023-04-02T05:53:42.243Z,2.87
2023-04-02T05:54:42.257Z,2.87
2023-04-02T05:55:42.230Z,2.87
2023-04-02T05:56:42.216Z,2.87
2023-04-02T05:57:49.572Z,2.90
2023-04-02T05:58:45.473Z,2.89
2023-04-02T05:59:42.165Z,2.90
2023-04-02T06:00:42.175Z,2.90
2023-04-02T06:01:42.212Z,2.92
2023-04-02T06:02:42.204Z,2.96
2023-04-02T06:03:42.164Z,2.96
2023-04-02T06:04:42.123Z,2.99
2023-04-02T06:05:49.192Z,2.96
2023-04-02T06:06:42.105Z,2.95
2023-04-02T06:07:42.104Z,2.93
2023-04-02T06:08:42.104Z,2.93
2023-04-02T06:09:42.069Z,2.96
2023-04-02T06:10:42.073Z,2.96
2023-04-02T06:11:42.050Z,2.93
2023-04-02T06:12:42.178Z,2.96
2023-04-02T06:13:42.020Z,2.96
2023-04-02T06:14:42.027Z,2.96
2023-04-02T06:15:41.989Z,2.97
2023-04-02T06:16:42.039Z,2.99
2023-04-02T06:17:42.049Z,2.99
2023-04-02T06:18:41.973Z,3.00
2023-04-02T06:19:41.960Z,3.02
2023-04-02T06:20:41.967Z,3.03
2023-04-02T06:21:41.950Z,3.02
2023-04-02T06:22:41.924Z,3.03
2023-04-02T06:23:41.925Z,3.03
2023-04-02T06:24:41.910Z,3.02
2023-04-02T06:25:41.894Z,3.03
2023-04-02T06:26:41.882Z,3.03
2023-04-02T06:27:41.871Z,3.05
2023-04-02T06:28:41.867Z,3.05
2023-04-02T06:29:41.876Z,3.05
2023-04-02T06:30:41.913Z,3.06
2023-04-02T06:31:41.829Z,3.03
2023-04-02T06:32:41.943Z,3.06
2023-04-02T06:33:41.796Z,3.06
2023-04-02T06:34:41.822Z,3.08
2023-04-02T06:35:41.841Z,3.08
2023-04-02T06:36:41.981Z,3.10
2023-04-02T06:37:41.799Z,3.11
2023-04-02T06:38:41.793Z,3.11
2023-04-02T06:39:41.747Z,3.13
2023-04-02T06:40:41.762Z,3.13
2023-04-02T06:41:41.726Z,3.17
2023-04-02T06:42:41.752Z,3.15
2023-04-02T06:43:41.706Z,3.15
2023-04-02T06:44:41.704Z,3.15
2023-04-02T06:45:41.719Z,3.17
2023-04-02T06:46:41.699Z,3.20
2023-04-02T06:47:41.755Z,3.20
2023-04-02T06:48:41.663Z,3.21
2023-04-02T06:49:41.664Z,3.20
2023-04-02T06:50:41.653Z,3.21
2023-04-02T06:51:41.614Z,3.20
2023-04-02T06:52:41.630Z,3.24
2023-04-02T06:53:41.585Z,3.24
2023-04-02T06:54:41.630Z,3.29
2023-04-02T06:55:41.583Z,3.31
2023-04-02T06:56:41.586Z,3.36
2023-04-02T06:57:43.024Z,3.36
2023-04-02T06:58:41.565Z,3.35
2023-04-02T06:59:41.573Z,3.32
2023-04-02T07:00:41.537Z,3.32
2023-04-02T07:01:41.549Z,3.35
2023-04-02T07:02:41.522Z,3.33
2023-04-02T07:03:41.484Z,3.33
2023-04-02T07:04:41.577Z,3.40
2023-04-02T07:05:43.024Z,3.45
2023-04-02T07:06:41.473Z,3.43
2023-04-02T07:07:41.577Z,3.47
2023-04-02T07:08:41.456Z,3.48
2023-04-02T07:09:41.427Z,3.51
2023-04-02T07:10:41.431Z,3.54
2023-04-02T07:11:41.404Z,3.55
2023-04-02T07:12:41.407Z,3.61
2023-04-02T07:13:41.381Z,3.66
2023-04-02T07:14:41.378Z,3.66
2023-04-02T07:15:41.397Z,3.65
2023-04-02T07:16:41.366Z,3.65
2023-04-02T07:17:41.362Z,3.75
2023-04-02T07:18:41.336Z,3.78
2023-04-02T07:19:41.312Z,3.76
2023-04-02T07:20:41.311Z,3.76
2023-04-02T07:21:41.295Z,3.78
2023-04-02T07:22:41.306Z,3.75
2023-04-02T07:23:41.278Z,3.68
2023-04-02T07:24:41.322Z,3.57
2023-04-02T07:25:41.292Z,3.55
2023-04-02T07:26:41.283Z,3.55
2023-04-02T07:27:41.271Z,3.58
2023-04-02T07:28:41.274Z,3.62
2023-04-02T07:29:41.213Z,3.61
2023-04-02T07:30:41.214Z,3.61
2023-04-02T07:31:41.223Z,3.65
2023-04-02T07:32:41.246Z,3.62
2023-04-02T07:33:42.163Z,3.61
2023-04-02T07:34:41.174Z,3.62
2023-04-02T07:35:41.216Z,3.65
2023-04-02T07:36:41.166Z,3.68
2023-04-02T07:37:41.176Z,3.68
2023-04-02T07:38:41.203Z,3.65
2023-04-02T07:39:41.111Z,3.65
2023-04-02T07:40:41.119Z,3.68
2023-04-02T07:41:41.095Z,3.70
2023-04-02T07:42:41.091Z,3.69
2023-04-02T07:43:41.056Z,3.69
2023-04-02T07:44:41.074Z,3.66
2023-04-02T07:45:41.042Z,3.66
2023-04-02T07:46:41.119Z,3.66
2023-04-02T07:47:41.057Z,3.69
2023-04-02T07:48:41.041Z,3.70
2023-04-02T07:49:41.017Z,3.73
2023-04-02T07:50:41.002Z,3.75
2023-04-02T07:51:40.977Z,3.75
2023-04-02T07:52:40.984Z,3.75
2023-04-02T07:53:40.968Z,3.76
2023-04-02T07:54:40.963Z,3.78
2023-04-02T07:55:40.930Z,3.80
2023-04-02T07:56:40.948Z,3.83
2023-04-02T07:57:40.914Z,3.83
2023-04-02T07:58:40.923Z,3.80
2023-04-02T07:59:40.919Z,3.80
2023-04-02T08:00:40.917Z,3.76
2023-04-02T08:01:40.971Z,3.79
2023-04-02T08:02:40.918Z,3.84
2023-04-02T08:03:40.882Z,3.86
2023-04-02T08:04:40.861Z,3.90
2023-04-02T08:05:40.858Z,3.90
2023-04-02T08:06:40.837Z,3.96
2023-04-02T08:07:40.810Z,4.02
2023-04-02T08:08:40.817Z,4.09
2023-04-02T08:09:40.845Z,4.09
2023-04-02T08:10:40.796Z,4.06
2023-04-02T08:11:40.773Z,4.08
2023-04-02T08:12:40.774Z,4.09
2023-04-02T08:13:40.758Z,4.11
2023-04-02T08:14:40.754Z,4.12
2023-04-02T08:15:40.737Z,4.16
2023-04-02T08:16:40.762Z,4.23
2023-04-02T08:17:40.743Z,4.24
2023-04-02T08:18:40.701Z,4.32
2023-04-02T08:19:53.675Z,4.32
2023-04-02T08:20:41.704Z,4.33
2023-04-02T08:21:40.666Z,4.40
2023-04-02T08:22:40.677Z,4.40
2023-04-02T08:23:40.638Z,4.42
2023-04-02T08:24:40.668Z,4.41
2023-04-02T08:25:40.636Z,4.44
2023-04-02T08:26:40.629Z,4.40
2023-04-02T08:27:40.623Z,4.45
2023-04-02T08:28:40.621Z,4.52
2023-04-02T08:29:40.578Z,4.58
2023-04-02T08:30:40.598Z,4.63
2023-04-02T08:31:40.565Z,4.70
2023-04-02T08:32:40.749Z,4.77
2023-04-02T08:33:40.547Z,4.80
2023-04-02T08:34:40.560Z,4.82
2023-04-02T08:35:40.643Z,4.85
2023-04-02T08:36:40.526Z,4.89
2023-04-02T08:37:40.497Z,4.85
2023-04-02T08:38:40.519Z,4.89
2023-04-02T08:39:40.470Z,4.89
2023-04-02T08:40:40.606Z,4.99
2023-04-02T08:41:40.452Z,4.88
2023-04-02T08:42:40.476Z,4.86
2023-04-02T08:43:40.464Z,4.94
2023-04-02T08:44:40.448Z,4.97
2023-04-02T08:45:40.642Z,4.99
2023-04-02T08:46:40.410Z,5.06
2023-04-02T08:47:40.459Z,5.10
2023-04-02T08:48:42.611Z,5.02
2023-04-02T08:49:40.572Z,5.00
2023-04-02T08:50:40.379Z,5.07
2023-04-02T08:51:40.345Z,5.12
2023-04-02T08:52:40.581Z,5.21
2023-04-02T08:53:40.328Z,5.28
2023-04-02T08:54:40.343Z,5.21
2023-04-02T08:55:40.305Z,5.17
2023-04-02T08:56:40.355Z,5.20
2023-04-02T08:57:40.298Z,5.20
2023-04-02T08:58:40.903Z,5.18
2023-04-02T08:59:40.284Z,5.12
2023-04-02T09:00:40.256Z,5.22
2023-04-02T09:01:40.318Z,5.25
2023-04-02T09:02:40.281Z,5.24
2023-04-02T09:03:40.231Z,5.20
2023-04-02T09:04:40.277Z,5.25
2023-04-02T09:05:40.191Z,5.28
2023-04-02T09:06:40.236Z,5.22
2023-04-02T09:07:40.193Z,5.21
2023-04-02T09:08:40.181Z,5.21
2023-04-02T09:09:40.155Z,5.18
2023-04-02T09:10:40.178Z,5.25
2023-04-02T09:11:40.155Z,5.30
2023-04-02T09:12:42.257Z,5.31
2023-04-02T09:13:40.125Z,5.35
2023-04-02T09:14:40.254Z,5.40
2023-04-02T09:15:40.121Z,5.51
2023-04-02T09:16:40.107Z,5.53
2023-04-02T09:17:53.240Z,5.51
2023-04-02T09:18:41.271Z,5.51
2023-04-02T09:19:40.055Z,5.64
2023-04-02T09:20:40.047Z,5.72
2023-04-02T09:21:40.034Z,5.75
2023-04-02T09:22:40.054Z,5.74
2023-04-02T09:23:40.001Z,5.81
2023-04-02T09:24:40.020Z,5.91
2023-04-02T09:25:39.990Z,5.93
2023-04-02T09:26:39.986Z,5.81
2023-04-02T09:27:39.992Z,5.72
2023-04-02T09:28:39.973Z,5.74
2023-04-02T09:29:39.974Z,5.82
2023-04-02T09:30:39.960Z,5.93
2023-04-02T09:31:39.950Z,5.94
2023-04-02T09:32:39.971Z,5.86
2023-04-02T09:33:39.907Z,5.75
2023-04-02T09:34:39.933Z,5.63
2023-04-02T09:35:39.922Z,5.64
2023-04-02T09:36:39.883Z,5.60
2023-04-02T09:37:39.857Z,5.61
2023-04-02T09:38:39.861Z,5.57
2023-04-02T09:39:39.834Z,5.58
2023-04-02T09:40:40.544Z,5.61
2023-04-02T09:41:40.135Z,5.89
2023-04-02T09:42:39.943Z,6.14
2023-04-02T09:43:39.813Z,6.30
2023-04-02T09:44:39.840Z,6.41
2023-04-02T09:45:39.782Z,6.48
2023-04-02T09:46:39.826Z,6.41
2023-04-02T09:47:42.086Z,6.41
2023-04-02T09:48:39.777Z,6.49
2023-04-02T09:49:39.739Z,6.59
2023-04-02T09:50:39.734Z,6.58
2023-04-02T09:51:39.727Z,6.54
2023-04-02T09:52:39.731Z,6.67
2023-04-02T09:53:41.883Z,6.87
2023-04-02T09:54:39.729Z,7.06
2023-04-02T09:55:39.745Z,7.10
2023-04-02T09:56:39.675Z,7.13
2023-04-02T09:57:39.643Z,7.07
2023-04-02T09:58:39.696Z,7.03
2023-04-02T09:59:39.623Z,7.15
2023-04-02T10:00:39.742Z,7.21
2023-04-02T10:01:39.691Z,7.10
2023-04-02T10:02:39.620Z,7.02
2023-04-02T10:03:39.594Z,7.74
2023-04-02T10:04:39.614Z,7.68
2023-04-02T10:05:41.084Z,7.63
2023-04-02T10:06:39.537Z,7.43
2023-04-02T10:07:39.570Z,7.05
2023-04-02T10:08:39.524Z,6.81
2023-04-02T10:09:39.535Z,6.66
2023-04-02T10:10:39.513Z,6.71
2023-04-02T10:11:46.321Z,6.76
2023-04-02T10:12:40.545Z,6.80
2023-04-02T10:13:39.468Z,6.71
2023-04-02T10:14:39.465Z,6.76
2023-04-02T10:15:39.455Z,6.73
2023-04-02T10:16:39.523Z,6.79
2023-04-02T10:17:39.485Z,6.76
2023-04-02T10:18:39.417Z,6.77
2023-04-02T10:19:39.426Z,6.77
2023-04-02T10:20:50.508Z,6.76
2023-04-02T10:21:40.424Z,6.61
2023-04-02T10:22:39.383Z,6.66
2023-04-02T10:23:39.389Z,6.71
2023-04-02T10:24:39.348Z,6.81
2023-04-02T10:25:39.380Z,6.94
2023-04-02T10:26:39.350Z,6.88
2023-04-02T10:27:39.332Z,6.84
2023-04-02T10:28:39.310Z,6.85
2023-04-02T10:29:39.298Z,6.87
2023-04-02T10:30:39.351Z,6.84
2023-04-02T10:31:39.314Z,6.81
2023-04-02T10:32:39.291Z,6.84
2023-04-02T10:33:39.265Z,6.88
2023-04-02T10:34:39.431Z,6.84
2023-04-02T10:35:39.439Z,6.88
2023-04-02T10:36:39.228Z,6.97
2023-04-02T10:37:39.243Z,6.94
2023-04-02T10:38:39.207Z,6.89
2023-04-02T10:39:39.222Z,6.89
2023-04-02T10:40:39.175Z,6.85
2023-04-02T10:41:39.195Z,6.81
2023-04-02T10:42:39.159Z,6.77
2023-04-02T10:43:39.346Z,6.74
2023-04-02T10:44:39.138Z,6.77
2023-04-02T10:45:39.116Z,6.76
2023-04-02T10:46:39.213Z,6.79
2023-04-02T10:47:39.196Z,6.84
2023-04-02T10:48:40.074Z,6.95
2023-04-02T10:49:39.116Z,6.84
2023-04-02T10:50:39.086Z,6.81
2023-04-02T10:51:39.078Z,6.85
2023-04-02T10:52:39.069Z,6.80
2023-04-02T10:53:39.054Z,6.77
2023-04-02T10:54:39.023Z,6.76
2023-04-02T10:55:39.040Z,6.76
2023-04-02T10:56:50.165Z,6.95
2023-04-02T10:57:40.117Z,7.10
2023-04-02T10:58:39.009Z,7.21
2023-04-02T10:59:38.989Z,7.17
2023-04-02T11:00:38.973Z,7.02
2023-04-02T11:01:39.031Z,6.92
2023-04-02T11:02:39.021Z,6.89
2023-04-02T11:03:39.071Z,6.92
2023-04-02T11:04:38.921Z,7.03
2023-04-02T11:05:38.930Z,7.12
2023-04-02T11:06:38.916Z,7.10
2023-04-02T11:07:38.907Z,7.16
2023-04-02T11:08:38.881Z,7.12
2023-04-02T11:09:38.876Z,7.05
2023-04-02T11:10:38.852Z,7.05
2023-04-02T11:11:38.862Z,7.20
2023-04-02T11:12:41.526Z,7.27
2023-04-02T11:13:38.836Z,7.40
2023-04-02T11:14:38.912Z,7.45
2023-04-02T11:15:38.835Z,7.52
2023-04-02T11:16:43.353Z,7.67
2023-04-02T11:17:39.843Z,7.68
2023-04-02T11:18:38.853Z,7.75
2023-04-02T11:19:38.769Z,7.79
2023-04-02T11:20:38.745Z,7.92
2023-04-02T11:21:51.082Z,7.93
2023-04-02T11:22:39.743Z,7.82
2023-04-02T11:23:38.727Z,7.79
2023-04-02T11:24:38.959Z,7.80
2023-04-02T11:25:38.718Z,7.87
2023-04-02T11:26:38.694Z,7.93
2023-04-02T11:27:38.712Z,8.12
2023-04-02T11:28:38.770Z,8.34
2023-04-02T11:29:38.729Z,8.53
2023-04-02T11:30:38.654Z,8.76
2023-04-02T11:31:39.384Z,8.77
2023-04-02T11:32:38.659Z,8.63
2023-04-02T11:33:41.370Z,8.52
2023-04-02T11:34:39.616Z,8.45
2023-04-02T11:35:38.909Z,8.34
2023-04-02T11:36:38.606Z,8.23
2023-04-02T11:37:38.636Z,8.37
2023-04-02T11:38:38.671Z,8.33
2023-04-02T11:39:38.579Z,8.22
2023-04-02T11:40:38.538Z,8.20
2023-04-02T11:41:38.549Z,8.25
2023-04-02T11:42:38.550Z,8.61
2023-04-02T11:43:38.543Z,8.98
2023-04-02T11:44:38.538Z,9.29
2023-04-02T11:45:50.141Z,9.38
2023-04-02T11:46:39.546Z,9.21
2023-04-02T11:47:38.498Z,9.39
2023-04-02T11:48:38.463Z,9.61
2023-04-02T11:49:38.468Z,9.68
2023-04-02T11:50:38.461Z,9.86
2023-04-02T11:51:38.437Z,9.50
2023-04-02T11:52:38.444Z,9.23
2023-04-02T11:53:38.426Z,9.01
2023-04-02T11:54:38.392Z,9.28
2023-04-02T11:55:38.707Z,9.26
2023-04-02T11:56:38.362Z,9.21
2023-04-02T11:57:38.429Z,9.18
2023-04-02T11:58:38.344Z,9.46
2023-04-02T11:59:38.367Z,9.78
2023-04-02T12:00:38.414Z,9.91
2023-04-02T12:01:38.363Z,9.91
2023-04-02T12:02:38.404Z,9.87
2023-04-02T12:03:38.362Z,10.07
2023-04-02T12:04:38.298Z,9.91
2023-04-02T12:05:38.388Z,9.89
2023-04-02T12:06:38.291Z,10.09
2023-04-02T12:07:38.247Z,9.79
2023-04-02T12:08:50.702Z,9.68
2023-04-02T12:09:39.247Z,9.39
2023-04-02T12:10:38.209Z,9.04
2023-04-02T12:11:38.248Z,8.73
2023-04-02T12:12:38.209Z,8.96
2023-04-02T12:13:38.198Z,8.99
2023-04-02T12:14:38.295Z,9.24
2023-04-02T12:15:38.164Z,9.31
2023-04-02T12:16:38.236Z,9.48
2023-04-02T12:17:38.203Z,9.58
2023-04-02T12:18:38.130Z,9.46
2023-04-02T12:19:38.141Z,9.57
2023-04-02T12:20:38.286Z,9.79
2023-04-02T12:21:38.099Z,10.12
2023-04-02T12:22:38.087Z,10.36
2023-04-02T12:23:38.079Z,10.45
2023-04-02T12:24:38.061Z,10.48
2023-04-02T12:25:38.051Z,10.85
2023-04-02T12:26:38.337Z,11.14
2023-04-02T12:27:38.057Z,11.19
2023-04-02T12:28:38.048Z,10.73
2023-04-02T12:29:38.027Z,10.30
2023-04-02T12:30:38.100Z,9.96
2023-04-02T12:31:38.017Z,9.66
2023-04-02T12:32:37.962Z,9.42
2023-04-02T12:33:38.008Z,9.47
2023-04-02T12:34:37.983Z,9.39
2023-04-02T12:35:37.965Z,9.29
2023-04-02T12:36:37.940Z,9.29
2023-04-02T12:37:38.249Z,9.20
2023-04-02T12:38:37.893Z,9.15
2023-04-02T12:39:37.920Z,9.60
2023-04-02T12:40:38.183Z,10.01
2023-04-02T12:41:37.907Z,10.45
2023-04-02T12:42:37.856Z,11.02
2023-04-02T12:43:37.879Z,11.42
2023-04-02T12:44:37.853Z,11.69
2023-04-02T12:45:37.831Z,12.01
2023-04-02T12:46:37.934Z,12.13
2023-04-02T12:47:37.957Z,12.47
2023-04-02T12:48:37.799Z,12.41
2023-04-02T12:49:37.821Z,12.05
2023-04-02T12:50:38.206Z,11.65
2023-04-02T12:51:37.798Z,11.57
2023-04-02T12:52:37.745Z,11.42
2023-04-02T12:53:37.758Z,10.96
2023-04-02T12:54:37.745Z,11.19
2023-04-02T12:55:37.758Z,11.10
2023-04-02T12:56:37.728Z,11.06
2023-04-02T12:57:37.900Z,11.29
2023-04-02T12:58:37.706Z,10.82
2023-04-02T12:59:37.688Z,10.59
2023-04-02T13:00:37.975Z,10.67
2023-04-02T13:01:37.722Z,11.14
2023-04-02T13:02:37.698Z,11.57
2023-04-02T13:03:37.853Z,11.98
2023-04-02T13:04:37.658Z,12.35
2023-04-02T13:05:37.652Z,12.64
2023-04-02T13:06:37.593Z,12.82
2023-04-02T13:07:37.608Z,12.32
2023-04-02T13:08:37.581Z,12.46
2023-04-02T13:09:37.593Z,12.47
2023-04-02T13:10:37.936Z,12.53
2023-04-02T13:11:37.572Z,12.67
2023-04-02T13:12:37.563Z,12.60
2023-04-02T13:13:37.572Z,12.37
2023-04-02T13:14:37.520Z,12.17
2023-04-02T13:15:37.582Z,11.65
2023-04-02T13:16:37.615Z,11.37